createdAt,value
2023-04-17T10:14:36.577Z,88.51
2023-04-17T10:15:36.534Z,88.51
2023-04-17T10:16:36.585Z,88.22
2023-04-17T10:17:36.550Z,88.45
2023-04-17T10:18:36.494Z,87.78
2023-04-17T10:19:36.487Z,87.78
2023-04-17T10:20:36.479Z,87.78
2023-04-17T10:21:36.453Z,87.88
2023-04-17T10:22:36.438Z,87.40
2023-04-17T10:23:36.425Z,87.30
2023-04-17T10:24:36.415Z,87.49
2023-04-17T10:25:36.406Z,87.11
2023-04-17T10:26:36.443Z,87.49
2023-04-17T10:27:36.377Z,87.35
2023-04-17T10:28:36.378Z,87.55
2023-04-17T10:29:37.224Z,87.74
2023-04-17T10:30:36.372Z,87.26
2023-04-17T10:31:36.347Z,87.64
2023-04-17T10:32:36.374Z,87.49
2023-04-17T10:33:36.294Z,87.59
2023-04-17T10:34:36.292Z,87.25
2023-04-17T10:35:36.266Z,85.71
2023-04-17T10:36:36.254Z,85.62
2023-04-17T10:37:36.241Z,85.18
2023-04-17T10:38:36.413Z,84.64
2023-04-17T10:39:36.255Z,84.50
2023-04-17T10:40:36.220Z,83.25
2023-04-17T10:41:36.186Z,82.27
2023-04-17T10:42:36.174Z,81.21
2023-04-17T10:43:36.171Z,80.68
2023-04-17T10:44:36.165Z,80.18
2023-04-17T10:45:36.169Z,78.46
2023-04-17T10:46:36.163Z,75.60
2023-04-17T10:47:36.162Z,73.96
2023-04-17T10:48:36.216Z,74.27
2023-04-17T10:49:36.085Z,75.45
2023-04-17T10:50:36.076Z,76.67
2023-04-17T10:51:36.060Z,78.03
2023-04-17T10:52:36.050Z,79.30
2023-04-17T10:53:36.045Z,80.61
2023-04-17T10:54:36.027Z,81.87
2023-04-17T10:55:36.013Z,83.56
2023-04-17T10:56:36.005Z,85.34
2023-04-17T10:57:35.988Z,86.16
2023-04-17T10:58:35.982Z,87.02
2023-04-17T10:59:35.962Z,88.27
2023-04-17T11:00:35.958Z,88.80
2023-04-17T11:01:35.958Z,89.09
2023-04-17T11:02:36.059Z,89.47
2023-04-17T11:03:36.011Z,90.05
2023-04-17T11:04:35.955Z,89.86
2023-04-17T11:05:36.125Z,89.66
2023-04-17T11:06:35.874Z,89.57
2023-04-17T11:07:35.874Z,89.76
2023-04-17T11:08:35.848Z,88.75
2023-04-17T11:09:35.838Z,88.89
2023-04-17T11:10:35.824Z,87.49
2023-04-17T11:12:35.799Z,85.57
2023-04-17T11:13:35.786Z,84.45
2023-04-17T11:14:35.778Z,82.81
2023-04-17T11:15:35.764Z,81.30
2023-04-17T11:16:35.790Z,80.74
2023-04-17T11:17:35.789Z,73.00
2023-04-17T11:18:35.754Z,62.32
2023-04-17T11:19:35.712Z,59.92
2023-04-17T11:20:35.700Z,61.38
2023-04-17T11:21:35.690Z,63.33
2023-04-17T11:22:35.674Z,65.85
2023-04-17T11:23:35.668Z,67.85
2023-04-17T11:24:35.655Z,69.14
2023-04-17T11:25:35.650Z,70.07
2023-04-17T11:26:35.670Z,71.42
2023-04-17T11:27:35.621Z,71.81
2023-04-17T11:28:35.611Z,71.81
2023-04-17T11:29:35.599Z,71.14
2023-04-17T11:30:35.616Z,70.84
2023-04-17T11:31:35.631Z,70.47
2023-04-17T11:32:35.585Z,68.37
2023-04-17T11:33:35.558Z,64.17
2023-04-17T11:34:35.558Z,63.95
2023-04-17T11:35:35.543Z,65.01
2023-04-17T11:36:35.533Z,66.11
2023-04-17T11:37:35.514Z,67.56
2023-04-17T11:38:35.501Z,69.81
2023-04-17T11:39:35.495Z,71.32
2023-04-17T11:40:35.504Z,73.08
2023-04-17T11:41:35.475Z,73.58
2023-04-17T11:42:35.457Z,74.90
2023-04-17T11:43:35.450Z,75.88
2023-04-17T11:44:35.457Z,77.29
2023-04-17T11:45:35.426Z,78.59
2023-04-17T11:46:35.474Z,80.28
2023-04-17T11:47:35.487Z,81.15
2023-04-17T11:48:35.405Z,81.97
2023-04-17T11:49:35.382Z,83.37
2023-04-17T11:50:35.380Z,83.18
2023-04-17T11:51:35.358Z,84.14
2023-04-17T11:52:35.360Z,85.25
2023-04-17T11:53:35.336Z,85.44
2023-04-17T11:54:35.340Z,85.53
2023-04-17T11:55:35.319Z,85.97
2023-04-17T11:56:35.302Z,85.58
2023-04-17T11:57:35.291Z,85.78
2023-04-17T11:58:35.277Z,85.58
2023-04-17T11:59:35.265Z,85.68
2023-04-17T12:00:35.254Z,85.68
2023-04-17T12:01:35.245Z,85.68
2023-04-17T12:02:35.393Z,85.58
2023-04-17T12:03:35.774Z,85.21
2023-04-17T12:04:35.604Z,84.91
2023-04-17T12:05:35.240Z,85.30
2023-04-17T12:06:35.198Z,84.72
2023-04-17T12:07:35.167Z,84.34
2023-04-17T12:08:35.152Z,83.91
2023-04-17T12:09:35.146Z,83.71
2023-04-17T12:10:35.129Z,83.27
2023-04-17T12:11:35.126Z,82.60
2023-04-17T12:12:35.100Z,81.97
2023-04-17T12:13:35.089Z,81.59
2023-04-17T12:14:35.089Z,81.15
2023-04-17T12:15:35.067Z,80.32
2023-04-17T12:16:35.078Z,80.07
2023-04-17T12:17:35.108Z,78.67
2023-04-17T12:18:35.032Z,78.61
2023-04-17T12:19:35.023Z,77.36
2023-04-17T12:20:35.003Z,76.88
2023-04-17T12:21:34.991Z,76.34
2023-04-17T12:22:34.993Z,75.96
2023-04-17T12:23:34.964Z,75.96
2023-04-17T12:24:34.966Z,76.06
2023-04-17T12:25:34.941Z,75.96
2023-04-17T12:26:34.929Z,75.48
2023-04-17T12:27:34.933Z,75.92
2023-04-17T12:28:34.906Z,76.75
2023-04-17T12:29:43.934Z,78.15
2023-04-17T12:30:34.880Z,78.59
2023-04-17T12:31:34.898Z,79.84
2023-04-17T12:32:34.880Z,80.38
2023-04-17T12:33:34.852Z,80.63
2023-04-17T12:34:34.843Z,81.45
2023-04-17T12:35:34.817Z,82.37
2023-04-17T12:36:34.869Z,83.33
2023-04-17T12:37:34.840Z,83.38
2023-04-17T12:38:34.789Z,84.68
2023-04-17T12:39:34.797Z,84.88
2023-04-17T12:40:34.776Z,85.35
2023-04-17T12:41:34.748Z,85.83
2023-04-17T12:42:46.156Z,84.97
2023-04-17T12:43:34.727Z,85.25
2023-04-17T12:44:34.708Z,85.16
2023-04-17T12:45:34.748Z,84.88
2023-04-17T12:46:34.684Z,84.39
2023-04-17T12:47:34.693Z,83.86
2023-04-17T12:48:34.658Z,83.67
2023-04-17T12:49:34.646Z,83.52
2023-04-17T12:50:34.644Z,82.75
2023-04-17T12:51:34.624Z,82.31
2023-04-17T12:52:34.614Z,81.45
2023-04-17T12:53:34.593Z,80.43
2023-04-17T12:54:34.601Z,80.19
2023-04-17T12:55:34.570Z,79.90
2023-04-17T12:56:34.574Z,79.84
2023-04-17T12:57:34.551Z,79.07
2023-04-17T12:58:34.536Z,78.78
2023-04-17T12:59:34.531Z,78.21
2023-04-17T13:00:34.505Z,78.53
2023-04-17T13:01:34.543Z,77.90
2023-04-17T13:02:34.570Z,77.13
2023-04-17T13:03:34.589Z,76.50
2023-04-17T13:04:34.637Z,76.56
2023-04-17T13:05:34.442Z,76.17
2023-04-17T13:06:34.433Z,76.75
2023-04-17T13:07:34.441Z,77.29
2023-04-17T13:08:34.418Z,77.48
2023-04-17T13:09:34.390Z,77.29
2023-04-17T13:10:34.415Z,77.48
2023-04-17T13:11:34.364Z,76.81
2023-04-17T13:12:34.350Z,76.94
2023-04-17T13:13:34.340Z,76.56
2023-04-17T13:14:34.331Z,76.07
2023-04-17T13:15:34.320Z,77.00
2023-04-17T13:16:34.317Z,76.61
2023-04-17T13:17:34.348Z,76.75
2023-04-17T13:18:34.275Z,76.81
2023-04-17T13:19:34.271Z,76.84
2023-04-17T13:20:34.267Z,76.94
2023-04-17T13:21:34.343Z,76.84
2023-04-17T13:22:34.231Z,76.56
2023-04-17T13:23:34.214Z,76.94
2023-04-17T13:24:34.201Z,77.00
2023-04-17T13:25:34.188Z,76.81
2023-04-17T13:26:34.195Z,77.29
2023-04-17T13:27:34.173Z,77.63
2023-04-17T13:28:34.172Z,78.21
2023-04-17T13:29:34.142Z,78.36
2023-04-17T13:30:34.179Z,78.94
2023-04-17T13:31:34.153Z,79.42
2023-04-17T13:32:34.119Z,78.75
2023-04-17T13:33:34.095Z,79.13
2023-04-17T13:34:34.078Z,79.28
2023-04-17T13:35:34.065Z,79.47
2023-04-17T13:36:34.055Z,80.05
2023-04-17T13:37:34.105Z,79.96
2023-04-17T13:38:34.042Z,79.96
2023-04-17T13:39:34.043Z,79.67
2023-04-17T13:40:34.011Z,80.05
2023-04-17T13:41:33.997Z,79.76
2023-04-17T13:42:34.045Z,79.28
2023-04-17T13:43:33.973Z,79.03
2023-04-17T13:44:33.953Z,78.75
2023-04-17T13:45:33.942Z,78.78
2023-04-17T13:46:33.938Z,77.92
2023-04-17T13:47:33.932Z,78.11
2023-04-17T13:48:33.929Z,77.92
2023-04-17T13:49:33.897Z,77.44
2023-04-17T13:50:33.882Z,77.73
2023-04-17T13:51:33.875Z,78.02
2023-04-17T13:52:33.858Z,77.53
2023-04-17T13:53:33.851Z,77.88
2023-04-17T13:54:33.832Z,78.17
2023-04-17T13:55:33.817Z,78.08
2023-04-17T13:56:33.812Z,78.45
2023-04-17T13:57:33.794Z,77.98
2023-04-17T13:58:33.968Z,78.75
2023-04-17T13:59:33.771Z,78.65
2023-04-17T14:00:33.766Z,78.65
2023-04-17T14:01:33.819Z,78.75
2023-04-17T14:02:33.813Z,78.70
2023-04-17T14:03:33.868Z,78.70
2023-04-17T14:04:33.879Z,79.09
2023-04-17T14:05:33.698Z,78.52
2023-04-17T14:06:33.681Z,79.09
2023-04-17T14:07:33.669Z,79.09
2023-04-17T14:08:33.654Z,79.09
2023-04-17T14:09:33.668Z,79.44
2023-04-17T14:10:33.643Z,79.28
2023-04-17T14:11:33.624Z,79.86
2023-04-17T14:12:33.615Z,79.09
2023-04-17T14:13:33.601Z,78.96
2023-04-17T14:14:33.664Z,78.86
2023-04-17T14:15:33.567Z,79.24
2023-04-17T14:16:33.653Z,79.30
2023-04-17T14:17:33.564Z,79.88
2023-04-17T14:18:33.544Z,80.35
2023-04-17T14:19:33.534Z,80.22
2023-04-17T14:20:33.514Z,80.60
2023-04-17T14:21:33.498Z,81.04
2023-04-17T14:22:33.485Z,81.71
2023-04-17T14:23:33.482Z,81.67
2023-04-17T14:24:33.464Z,82.24
2023-04-17T14:25:33.453Z,82.73
2023-04-17T14:26:33.444Z,82.24
2023-04-17T14:27:33.422Z,82.00
2023-04-17T14:28:33.407Z,81.81
2023-04-17T14:29:33.420Z,82.19
2023-04-17T14:30:33.388Z,81.08
2023-04-17T14:31:33.434Z,80.51
2023-04-17T14:32:33.390Z,80.16
2023-04-17T14:33:33.346Z,79.63
2023-04-17T14:34:33.351Z,78.96
2023-04-17T14:35:33.316Z,78.13
2023-04-17T14:36:33.320Z,77.84
2023-04-17T14:37:34.064Z,77.21
2023-04-17T14:38:33.289Z,77.31
2023-04-17T14:39:33.298Z,77.31
2023-04-17T14:40:33.265Z,77.31
2023-04-17T14:41:33.296Z,77.17
2023-04-17T14:42:40.777Z,77.65
2023-04-17T14:43:33.224Z,78.38
2023-04-17T14:44:33.217Z,78.44
2023-04-17T14:45:33.203Z,78.72
2023-04-17T14:46:33.229Z,79.64
2023-04-17T14:47:33.226Z,80.03
2023-04-17T14:48:41.149Z,79.89
2023-04-17T14:49:33.139Z,80.47
2023-04-17T14:50:33.128Z,80.76
2023-04-17T14:51:33.125Z,80.90
2023-04-17T14:52:33.116Z,80.90
2023-04-17T14:53:33.149Z,81.29
2023-04-17T14:54:33.086Z,81.57
2023-04-17T14:55:33.075Z,81.73
2023-04-17T14:56:33.051Z,81.44
2023-04-17T14:57:33.036Z,81.34
2023-04-17T14:58:33.029Z,81.44
2023-04-17T14:59:33.021Z,81.63
2023-04-17T15:00:33.061Z,81.54
2023-04-17T15:01:33.130Z,81.44
2023-04-17T15:02:33.170Z,81.34
2023-04-17T15:03:33.140Z,81.34
2023-04-17T15:04:32.996Z,81.05
2023-04-17T15:05:32.939Z,80.81
2023-04-17T15:06:32.918Z,80.77
2023-04-17T15:07:32.924Z,80.24
2023-04-17T15:08:32.910Z,80.14
2023-04-17T15:09:32.881Z,80.24
2023-04-17T15:10:40.770Z,79.95
2023-04-17T15:11:32.860Z,80.56
2023-04-17T15:12:32.858Z,79.89
2023-04-17T15:13:32.825Z,80.12
2023-04-17T15:14:32.822Z,79.55
2023-04-17T15:15:32.815Z,78.88
2023-04-17T15:16:32.855Z,78.72
2023-04-17T15:17:32.788Z,78.53
2023-04-17T15:18:32.771Z,78.82
2023-04-17T15:19:32.748Z,78.53
2023-04-17T15:20:34.071Z,78.53
2023-04-17T15:21:32.726Z,78.72
2023-04-17T15:22:32.707Z,78.53
2023-04-17T15:23:32.695Z,78.88
2023-04-17T15:24:32.688Z,79.16
2023-04-17T15:25:32.670Z,79.55
2023-04-17T15:26:32.654Z,80.03
2023-04-17T15:27:32.640Z,80.18
2023-04-17T15:28:32.625Z,80.32
2023-04-17T15:29:32.618Z,80.47
2023-04-17T15:30:32.607Z,80.08
2023-04-17T15:31:32.614Z,80.27
2023-04-17T15:32:32.616Z,80.27
2023-04-17T15:33:32.588Z,80.76
2023-04-17T15:34:32.601Z,80.76
2023-04-17T15:35:32.538Z,81.04
2023-04-17T15:36:32.540Z,81.00
2023-04-17T15:37:32.511Z,80.81
2023-04-17T15:38:32.497Z,80.90
2023-04-17T15:39:32.495Z,81.10
2023-04-17T15:40:32.472Z,81.00
2023-04-17T15:41:32.459Z,80.96
2023-04-17T15:42:32.446Z,81.54
2023-04-17T15:43:32.436Z,81.25
2023-04-17T15:44:32.438Z,82.11
2023-04-17T15:45:32.416Z,81.63
2023-04-17T15:46:32.429Z,81.82
2023-04-17T15:47:32.445Z,81.73
2023-04-17T15:48:32.395Z,82.20
2023-04-17T15:49:32.353Z,82.11
2023-04-17T15:50:32.369Z,82.26
2023-04-17T15:51:32.337Z,82.45
2023-04-17T15:52:32.317Z,82.54
2023-04-17T15:53:32.304Z,82.45
2023-04-17T15:54:32.292Z,82.26
2023-04-17T15:55:32.275Z,82.64
2023-04-17T15:56:32.259Z,82.70
2023-04-17T15:57:32.262Z,82.79
2023-04-17T15:58:32.244Z,83.08
2023-04-17T15:59:32.217Z,82.79
2023-04-17T16:00:32.203Z,83.08
2023-04-17T16:01:32.232Z,83.08
2023-04-17T16:02:32.313Z,83.08
2023-04-17T16:03:32.363Z,83.61
2023-04-17T16:04:32.291Z,83.33
2023-04-17T16:05:32.143Z,83.42
2023-04-17T16:06:32.197Z,83.42
2023-04-17T16:07:32.124Z,83.51
2023-04-17T16:08:32.098Z,83.51
2023-04-17T16:09:32.099Z,83.51
2023-04-17T16:10:32.071Z,83.90
2023-04-17T16:11:32.055Z,83.80
2023-04-17T16:12:32.043Z,83.80
2023-04-17T16:13:32.036Z,83.70
2023-04-17T16:14:32.016Z,83.42
2023-04-17T16:15:32.023Z,83.33
2023-04-17T16:16:32.031Z,82.94
2023-04-17T16:17:32.024Z,82.84
2023-04-17T16:18:31.958Z,83.08
2023-04-17T16:19:31.944Z,82.79
2023-04-17T16:20:31.943Z,82.60
2023-04-17T16:21:31.917Z,82.31
2023-04-17T16:22:31.930Z,82.41
2023-04-17T16:23:31.892Z,81.93
2023-04-17T16:24:31.875Z,82.03
2023-04-17T16:25:31.862Z,81.84
2023-04-17T16:26:31.848Z,81.78
2023-04-17T16:27:31.833Z,81.49
2023-04-17T16:28:31.818Z,81.68
2023-04-17T16:29:31.806Z,81.40
2023-04-17T16:30:31.811Z,81.49
2023-04-17T16:31:31.838Z,81.59
2023-04-17T16:32:31.899Z,81.49
2023-04-17T16:33:31.748Z,81.59
2023-04-17T16:34:31.746Z,81.59
2023-04-17T16:35:31.721Z,81.78
2023-04-17T16:36:33.290Z,81.49
2023-04-17T16:37:31.692Z,81.88
2023-04-17T16:38:31.701Z,81.59
2023-04-17T16:39:31.667Z,81.68
2023-04-17T16:40:31.657Z,81.49
2023-04-17T16:41:31.647Z,81.78
2023-04-17T16:42:31.626Z,81.78
2023-04-17T16:43:31.621Z,81.78
2023-04-17T16:44:31.632Z,81.78
2023-04-17T16:45:31.626Z,81.78
2023-04-17T16:46:40.322Z,82.17
2023-04-17T16:47:31.676Z,82.03
2023-04-17T16:48:31.580Z,82.51
2023-04-17T16:49:31.532Z,82.31
2023-04-17T16:50:31.518Z,82.70
2023-04-17T16:51:31.502Z,82.89
2023-04-17T16:52:31.578Z,82.79
2023-04-17T16:53:31.481Z,82.89
2023-04-17T16:54:31.507Z,82.41
2023-04-17T16:55:31.450Z,83.08
2023-04-17T16:56:31.437Z,82.98
2023-04-17T16:57:31.417Z,82.98
2023-04-17T16:58:31.411Z,82.98
2023-04-17T16:59:31.390Z,83.08
2023-04-17T17:00:31.381Z,82.98
2023-04-17T17:01:31.434Z,82.70
2023-04-17T17:02:31.403Z,82.98
2023-04-17T17:03:31.381Z,82.89
2023-04-17T17:04:31.341Z,82.75
2023-04-17T17:05:31.322Z,82.65
2023-04-17T17:06:31.295Z,82.94
2023-04-17T17:07:31.296Z,83.13
2023-04-17T17:08:31.268Z,82.94
2023-04-17T17:09:31.268Z,82.65
2023-04-17T17:10:31.281Z,82.56
2023-04-17T17:11:31.226Z,83.42
2023-04-17T17:12:31.210Z,83.61
2023-04-17T17:13:31.201Z,83.33
2023-04-17T17:14:31.183Z,83.33
2023-04-17T17:15:31.170Z,83.51
2023-04-17T17:16:31.253Z,83.47
2023-04-17T17:17:31.179Z,83.38
2023-04-17T17:18:31.134Z,83.38
2023-04-17T17:19:31.119Z,83.18
2023-04-17T17:20:31.099Z,83.47
2023-04-17T17:21:31.135Z,83.18
2023-04-17T17:22:31.098Z,83.38
2023-04-17T17:23:31.069Z,83.57
2023-04-17T17:24:31.045Z,83.38
2023-04-17T17:25:31.031Z,83.47
2023-04-17T17:26:31.085Z,83.47
2023-04-17T17:27:30.998Z,83.28
2023-04-17T17:28:31.002Z,83.18
2023-04-17T17:29:30.997Z,83.18
2023-04-17T17:30:30.977Z,83.28
2023-04-17T17:31:31.012Z,83.62
2023-04-17T17:32:30.959Z,83.57
2023-04-17T17:33:32.157Z,83.95
2023-04-17T17:34:32.512Z,83.72
2023-04-17T17:35:30.893Z,83.91
2023-04-17T17:36:30.875Z,83.81
2023-04-17T17:37:30.877Z,83.53
2023-04-17T17:38:30.878Z,83.53
2023-04-17T17:39:30.897Z,83.62
2023-04-17T17:40:30.822Z,83.72
2023-04-17T17:41:30.813Z,83.91
2023-04-17T17:42:30.798Z,84.20
2023-04-17T17:43:30.780Z,84.20
2023-04-17T17:44:30.763Z,84.00
2023-04-17T17:45:30.801Z,84.20
2023-04-17T17:46:30.804Z,84.10
2023-04-17T17:47:30.810Z,83.96
2023-04-17T17:48:30.709Z,83.96
2023-04-17T17:49:30.704Z,83.96
2023-04-17T17:50:30.686Z,83.96
2023-04-17T17:51:30.667Z,83.87
2023-04-17T17:52:30.668Z,83.96
2023-04-17T17:53:30.679Z,83.96
2023-04-17T17:54:30.629Z,83.87
2023-04-17T17:55:30.611Z,83.96
2023-04-17T17:56:30.597Z,84.16
2023-04-17T17:57:41.864Z,83.77
2023-04-17T17:58:30.577Z,83.77
2023-04-17T17:59:30.607Z,84.16
2023-04-17T18:00:30.541Z,84.16
2023-04-17T18:01:30.603Z,83.64
2023-04-17T18:02:30.617Z,83.92
2023-04-17T18:03:30.570Z,84.01
2023-04-17T18:04:30.609Z,83.83
2023-04-17T18:05:30.487Z,83.92
2023-04-17T18:06:30.455Z,84.11
2023-04-17T18:07:30.438Z,83.73
2023-04-17T18:08:30.427Z,83.73
2023-04-17T18:09:30.441Z,83.92
2023-04-17T18:10:30.397Z,83.83
2023-04-17T18:11:30.391Z,83.92
2023-04-17T18:12:30.377Z,84.11
2023-04-17T18:13:30.358Z,84.11
2023-04-17T18:14:30.349Z,83.92
2023-04-17T18:15:30.363Z,84.07
2023-04-17T18:16:30.318Z,83.97
2023-04-17T18:17:30.332Z,84.07
2023-04-17T18:18:30.287Z,84.07
2023-04-17T18:19:30.287Z,84.07
2023-04-17T18:20:30.257Z,84.07
2023-04-17T18:21:30.245Z,84.07
2023-04-17T18:22:30.226Z,84.07
2023-04-17T18:23:30.214Z,84.07
2023-04-17T18:24:30.197Z,83.78
2023-04-17T18:25:30.184Z,83.88
2023-04-17T18:26:30.168Z,83.69
2023-04-17T18:27:30.156Z,83.78
2023-04-17T18:28:30.144Z,83.78
2023-04-17T18:29:30.175Z,83.78
2023-04-17T18:30:30.135Z,83.69
2023-04-17T18:31:30.148Z,83.65
2023-04-17T18:32:30.119Z,83.93
2023-04-17T18:33:30.069Z,83.74
2023-04-17T18:34:30.052Z,83.74
2023-04-17T18:35:30.036Z,83.74
2023-04-17T18:36:30.024Z,83.74
2023-04-17T18:37:30.007Z,83.84
2023-04-17T18:38:29.993Z,83.84
2023-04-17T18:39:29.977Z,83.74
2023-04-17T18:40:29.963Z,83.84
2023-04-17T18:41:29.948Z,83.84
2023-04-17T18:42:29.937Z,83.65
2023-04-17T18:43:29.919Z,83.55
2023-04-17T18:44:29.909Z,83.65
2023-04-17T18:45:29.895Z,83.22
2023-04-17T18:46:29.957Z,83.74
2023-04-17T18:47:29.881Z,83.22
2023-04-17T18:48:29.844Z,83.61
2023-04-17T18:49:29.841Z,83.51
2023-04-17T18:50:29.818Z,83.22
2023-04-17T18:51:29.799Z,83.22
2023-04-17T18:52:29.802Z,83.51
2023-04-17T18:53:29.770Z,83.51
2023-04-17T18:54:29.756Z,83.32
2023-04-17T18:55:29.741Z,83.41
2023-04-17T18:56:29.732Z,83.32
2023-04-17T18:57:29.717Z,83.32
2023-04-17T18:58:29.702Z,83.32
2023-04-17T18:59:29.746Z,83.51
2023-04-17T19:00:29.690Z,83.32
2023-04-17T19:01:29.675Z,83.89
2023-04-17T19:02:29.728Z,83.41
2023-04-17T19:03:29.668Z,83.61
2023-04-17T19:04:29.606Z,83.70
2023-04-17T19:05:29.634Z,83.89
2023-04-17T19:06:29.577Z,83.98
2023-04-17T19:07:29.560Z,83.75
2023-04-17T19:08:29.546Z,83.75
2023-04-17T19:09:29.532Z,83.47
2023-04-17T19:10:29.522Z,83.65
2023-04-17T19:11:29.505Z,83.65
2023-04-17T19:12:29.490Z,83.85
2023-04-17T19:13:29.472Z,83.75
2023-04-17T19:14:29.460Z,83.85
2023-04-17T19:15:29.456Z,83.94
2023-04-17T19:16:29.507Z,83.85
2023-04-17T19:17:29.418Z,83.94
2023-04-17T19:18:29.407Z,83.94
2023-04-17T19:19:29.396Z,83.85
2023-04-17T19:20:29.365Z,83.94
2023-04-17T19:21:29.360Z,83.75
2023-04-17T19:22:29.337Z,83.94
2023-04-17T19:23:29.323Z,84.04
2023-04-17T19:24:29.306Z,83.75
2023-04-17T19:25:29.288Z,83.75
2023-04-17T19:26:29.283Z,83.94
2023-04-17T19:27:29.257Z,83.75
2023-04-17T19:28:29.261Z,83.65
2023-04-17T19:29:29.224Z,83.85
2023-04-17T19:30:29.213Z,83.94
2023-04-17T19:31:29.256Z,83.85
2023-04-17T19:32:31.561Z,83.65
2023-04-17T19:33:29.165Z,84.04
2023-04-17T19:34:29.154Z,84.23
2023-04-17T19:35:29.146Z,84.52
2023-04-17T19:36:29.135Z,84.04
2023-04-17T19:37:29.105Z,83.85
2023-04-17T19:38:29.092Z,84.33
2023-04-17T19:39:29.081Z,83.85
2023-04-17T19:40:29.062Z,84.13
2023-04-17T19:41:29.054Z,84.52
2023-04-17T19:42:29.106Z,84.04
2023-04-17T19:43:29.013Z,84.52
2023-04-17T19:44:28.997Z,84.23
2023-04-17T19:45:28.982Z,84.52
2023-04-17T19:46:28.993Z,84.04
2023-04-17T19:47:28.953Z,84.04
2023-04-17T19:48:28.940Z,84.70
2023-04-17T19:49:28.912Z,84.52
2023-04-17T19:50:29.027Z,84.13
2023-04-17T19:51:28.881Z,84.23
2023-04-17T19:52:28.871Z,84.13
2023-04-17T19:53:28.856Z,84.13
2023-04-17T19:54:28.839Z,84.28
2023-04-17T19:55:28.824Z,84.09
2023-04-17T19:56:28.843Z,84.19
2023-04-17T19:57:28.806Z,84.19
2023-04-17T19:58:28.776Z,84.38
2023-04-17T19:59:28.767Z,84.28
2023-04-17T20:00:28.747Z,84.47
2023-04-17T20:01:28.771Z,84.56
2023-04-17T20:02:28.804Z,84.47
2023-04-17T20:03:28.902Z,84.56
2023-04-17T20:04:28.776Z,84.66
2023-04-17T20:05:28.671Z,84.76
2023-04-17T20:06:28.650Z,84.76
2023-04-17T20:07:28.632Z,84.85
2023-04-17T20:08:28.617Z,84.76
2023-04-17T20:09:28.604Z,84.47
2023-04-17T20:10:28.597Z,84.66
2023-04-17T20:11:28.580Z,85.24
2023-04-17T20:12:28.571Z,85.04
2023-04-17T20:13:28.546Z,84.95
2023-04-17T20:14:28.528Z,84.95
2023-04-17T20:15:28.528Z,84.81
2023-04-17T20:16:28.525Z,84.72
2023-04-17T20:17:28.494Z,84.52
2023-04-17T20:18:28.478Z,84.62
2023-04-17T20:19:28.459Z,85.10
2023-04-17T20:20:28.437Z,85.19
2023-04-17T20:21:28.417Z,85.10
2023-04-17T20:22:28.404Z,85.19
2023-04-17T20:23:28.389Z,85.19
2023-04-17T20:24:28.374Z,85.10
2023-04-17T20:25:28.355Z,85.10
2023-04-17T20:26:28.346Z,85.00
2023-04-17T20:27:28.321Z,85.10
2023-04-17T20:28:28.320Z,85.10
2023-04-17T20:29:28.308Z,84.77
2023-04-17T20:30:28.281Z,85.34
2023-04-17T20:31:28.285Z,85.43
2023-04-17T20:32:28.259Z,85.43
2023-04-17T20:33:28.240Z,85.15
2023-04-17T20:34:28.216Z,85.34
2023-04-17T20:35:28.200Z,85.43
2023-04-17T20:36:28.186Z,85.43
2023-04-17T20:37:28.169Z,85.24
2023-04-17T20:38:28.164Z,85.81
2023-04-17T20:39:28.136Z,85.91
2023-04-17T20:40:28.137Z,85.34
2023-04-17T20:41:28.111Z,85.58
2023-04-17T20:42:28.090Z,85.49
2023-04-17T20:43:28.079Z,85.96
2023-04-17T20:44:28.056Z,85.77
2023-04-17T20:45:28.053Z,85.49
2023-04-17T20:46:28.216Z,85.39
2023-04-17T20:47:28.050Z,85.58
2023-04-17T20:48:28.072Z,85.86
2023-04-17T20:49:27.982Z,85.68
2023-04-17T20:50:27.972Z,85.49
2023-04-17T20:51:27.948Z,85.30
2023-04-17T20:52:27.926Z,85.49
2023-04-17T20:53:27.910Z,85.01
2023-04-17T20:54:27.899Z,84.72
2023-04-17T20:55:27.876Z,84.82
2023-04-17T20:56:27.862Z,84.91
2023-04-17T20:57:27.849Z,84.91
2023-04-17T20:58:27.844Z,85.01
2023-04-17T20:59:27.821Z,85.01
2023-04-17T21:00:27.793Z,85.01
2023-04-17T21:01:27.819Z,84.91
2023-04-17T21:02:27.797Z,85.01
2023-04-17T21:03:27.863Z,84.78
2023-04-17T21:04:27.800Z,84.87
2023-04-17T21:05:27.712Z,84.97
2023-04-17T21:06:27.778Z,84.78
2023-04-17T21:07:27.685Z,84.78
2023-04-17T21:08:27.664Z,84.78
2023-04-17T21:09:27.650Z,84.87
2023-04-17T21:10:27.641Z,84.97
2023-04-17T21:11:27.629Z,84.78
2023-04-17T21:12:27.654Z,84.87
2023-04-17T21:13:27.581Z,84.97
2023-04-17T21:14:27.573Z,85.16
2023-04-17T21:15:27.553Z,85.06
2023-04-17T21:16:27.583Z,85.16
2023-04-17T21:17:27.554Z,85.06
2023-04-17T21:18:27.501Z,84.97
2023-04-17T21:19:27.486Z,85.35
2023-04-17T21:20:27.476Z,85.25
2023-04-17T21:21:27.456Z,85.06
2023-04-17T21:22:27.445Z,85.25
2023-04-17T21:23:27.425Z,85.16
2023-04-17T21:24:27.398Z,85.06
2023-04-17T21:25:27.387Z,85.25
2023-04-17T21:26:27.368Z,85.63
2023-04-17T21:27:27.357Z,85.63
2023-04-17T21:28:27.336Z,85.91
2023-04-17T21:29:27.322Z,85.82
2023-04-17T21:30:27.592Z,85.82
2023-04-17T21:31:27.380Z,85.72
2023-04-17T21:32:27.292Z,85.25
2023-04-17T21:33:27.252Z,85.25
2023-04-17T21:34:27.252Z,85.44
2023-04-17T21:35:27.222Z,85.25
2023-04-17T21:36:27.209Z,85.16
2023-04-17T21:37:27.183Z,84.68
2023-04-17T21:38:27.179Z,84.97
2023-04-17T21:39:27.149Z,84.97
2023-04-17T21:40:30.970Z,84.87
2023-04-17T21:41:27.124Z,84.59
2023-04-17T21:42:27.104Z,84.78
